Time;durP1;ratioP1;P1;durP2;ratioP2;P2;SDS_P1;SDS_P2;PMS_P1;PMS_P2;Temp;Humidity;BMP_temperature;BMP_pressure;BME280_temperature;BME280_humidity;BME280_pressure;Samples;Min_cycle;Max_cycle;Signal;HPM_P1;HPM_P2
2023/06/07 00:00:08;;;;;;;;;5.75;4.00;;;;;19.00;49.29;101093.38;146611;634;47050;-65
2023/06/07 00:03:33;;;;;;;;;7.25;6.00;;;;;18.95;49.46;101095.03;146623;578;46012;-65
2023/06/07 00:06:33;;;;;;;;;4.75;4.25;;;;;18.91;50.53;101095.81;146627;625;47010;-65
2023/06/07 00:09:42;;;;;;;;;;;;;;;;;;;;;
2023/06/07 00:12:45;;;;;;;;;6.00;3.00;;;;;18.87;49.87;101086.94;146627;569;46010;-66
2023/06/07 00:15:39;;;;;;;;;5.00;5.00;;;;;18.84;50.96;101093.88;146624;638;46014;-65
2023/06/07 00:18:55;;;;;;;;;7.00;5.67;;;;;18.78;51.02;101084.09;146625;601;47020;-67
2023/06/07 00:22:07;;;;;;;;;;;;;;;;;;;;;
2023/06/07 00:25:13;;;;;;;;;4.67;4.67;;;;;18.69;51.69;101087.38;146628;625;46020;-66
2023/06/07 00:28:09;;;;;;;;;5.33;4.33;;;;;18.66;51.61;101086.41;146623;577;47012;-66
2023/06/07 00:31:27;;;;;;;;;4.75;4.00;;;;;18.59;52.08;101092.38;146620;611;46021;-66
2023/06/07 00:34:38;;;;;;;;;5.75;5.50;;;;;15.98;52.02;100639.97;146626;570;46016;-68
2023/06/07 00:37:43;;;;;;;;;4.50;4.00;;;;;18.45;52.91;101074.53;146628;646;46020;-66
2023/06/07 00:40:38;;;;;;;;;7.00;6.00;;;;;18.43;53.46;101081.47;146624;622;46025;-67
2023/06/07 00:43:50;;;;;;;;;5.25;5.00;;;;;18.34;53.85;101081.25;146627;728;46020;-66
2023/06/07 00:46:46;;;;;;;;;5.50;5.50;;;;;18.28;54.16;101081.09;146622;656;47014;-67
2023/06/07 00:49:59;;;;;;;;;7.00;4.33;;;;;18.28;54.16;101081.09;146629;623;46010;-68
2023/06/07 00:53:02;;;;;;;;;6.00;5.00;;;;;18.24;53.79;101076.63;146620;591;47014;-68
2023/06/07 00:56:00;;;;;;;;;6.00;6.00;;;;;18.15;53.97;101085.13;146623;588;47020;-66
2023/06/07 00:59:03;;;;;;;;;6.00;4.50;;;;;18.11;54.76;101085.03;146618;688;46917;-67
2023/06/07 01:02:20;;;;;;;;;5.00;4.50;;;;;18.04;54.91;101088.31;146620;590;46010;-66
2023/06/07 01:05:30;;;;;;;;;6.25;5.75;;;;;18.02;54.32;101090.91;146622;639;47012;-67
2023/06/07 01:08:32;;;;;;;;;7.25;6.00;;;;;18.07;54.13;101091.03;146627;621;47010;-67
2023/06/07 01:11:36;;;;;;;;;6.00;6.00;;;;;18.15;54.68;101079.00;146625;588;46016;-69
2023/06/07 01:14:22;;;;;;;;;6.75;6.00;;;;;18.22;55.34;101075.69;146698;585;46012;-67
2023/06/07 01:17:24;;;;;;;;;5.00;5.00;;;;;18.27;55.04;101075.81;146620;579;46012;-68
2023/06/07 01:20:23;;;;;;;;;6.25;4.25;;;;;18.27;55.18;101078.44;146623;583;45020;-68
2023/06/07 01:23:27;;;;;;;;;5.00;5.00;;;;;18.20;55.10;101082.66;146616;580;46016;-68
2023/06/07 01:26:26;;;;;;;;;4.50;4.50;;;;;18.15;55.35;101074.63;146623;632;46020;-67
2023/06/07 01:29:42;;;;;;;;;7.50;6.50;;;;;18.11;55.73;101069.28;146615;579;47014;-66
2023/06/07 01:32:40;;;;;;;;;7.25;6.75;;;;;18.09;55.90;101077.09;146620;564;46020;-66
2023/06/07 01:35:36;;;;;;;;;5.67;4.67;;;;;18.07;56.76;101072.66;146619;651;46012;-67
2023/06/07 01:38:31;;;;;;;;;5.00;5.00;;;;;17.96;57.56;101069.75;146623;585;46010;-67
2023/06/07 01:41:27;;;;;;;;;6.00;5.00;;;;;17.85;57.16;101076.44;146618;574;46012;-65
2023/06/07 01:44:25;;;;;;;;;7.25;5.25;;;;;17.76;58.35;101071.84;146625;581;45021;-65
2023/06/07 01:47:18;;;;;;;;;4.00;4.00;;;;;17.70;58.10;101066.41;146621;575;47012;-64
2023/06/07 01:50:14;;;;;;;;;7.50;5.50;;;;;17.64;58.80;101061.88;146623;621;46010;-65
2023/06/07 01:53:09;;;;;;;;;5.25;4.50;;;;;17.58;58.94;101064.34;146621;688;46016;-66
2023/06/07 01:56:28;;;;;;;;;7.75;7.75;;;;;17.53;58.34;101068.53;146623;712;46020;-65
2023/06/07 02:00:09;;;;;;;;;9.00;6.00;;;;;17.47;58.30;101069.25;146619;564;46020;-66
2023/06/07 02:03:25;;;;;;;;;10.25;6.00;;;;;17.43;58.34;101071.75;146623;670;46020;-66
2023/06/07 02:06:49;;;;;;;;;9.75;7.25;;;;;16.91;58.10;100987.25;146618;651;47012;-66
2023/06/07 02:10:17;;;;;;;;;6.00;6.00;;;;;17.42;59.90;101064.75;146622;570;47023;-67
2023/06/07 02:13:12;;;;;;;;;6.50;6.50;;;;;17.46;60.10;101069.22;146620;650;46012;-67
2023/06/07 02:16:26;;;;;;;;;6.50;6.50;;;;;17.46;59.12;101077.97;146624;672;46012;-66
2023/06/07 02:19:28;;;;;;;;;8.50;7.25;;;;;17.42;60.17;101070.87;146617;686;46015;-63
2023/06/07 02:22:34;;;;;;;;;6.50;6.50;;;;;15.84;59.52;100793.84;146620;574;46021;-66
2023/06/07 02:25:34;;;;;;;;;8.00;7.00;;;;;17.46;60.02;101070.09;146616;646;47012;-64
2023/06/07 02:29:10;;;;;;;;;;;;;;;;;;;;;
2023/06/07 02:32:04;;;;;;;;;6.50;6.50;;;;;17.41;59.72;101082.19;146621;574;46012;-64
2023/06/07 02:35:15;;;;;;;;;7.00;5.00;;;;;17.42;59.73;101089.22;146624;715;46010;-63
2023/06/07 02:38:23;;;;;;;;;10.75;9.50;;;;;17.44;58.58;101090.13;146619;563;46031;-64
2023/06/07 02:42:00;;;;;;;;;7.50;7.50;;;;;16.12;58.11;100858.34;146621;656;46020;-63
2023/06/07 02:45:18;;;;;;;;;7.00;6.75;;;;;16.15;58.09;100858.44;146618;586;46016;-64
2023/06/07 02:48:12;;;;;;;;;5.50;5.50;;;;;17.51;59.63;101086.88;146619;683;47022;-64
2023/06/07 02:51:15;;;;;;;;;9.25;8.25;;;;;17.51;58.90;101088.59;146617;651;46017;-64
2023/06/07 02:54:21;;;;;;;;;;;;;;;;;;;;;
2023/06/07 02:57:22;;;;;;;;;8.50;7.75;;;;;17.50;58.52;101094.69;146619;686;46013;-64
2023/06/07 03:00:27;;;;;;;;;8.75;7.50;;;;;17.48;59.23;101080.66;146623;566;46020;-64
2023/06/07 03:03:28;;;;;;;;;8.75;8.00;;;;;17.46;58.54;101090.19;146620;591;46023;-64
2023/06/07 03:06:42;;;;;;;;;6.00;6.00;;;;;15.99;59.38;100850.97;146623;706;46010;-64
2023/06/07 03:09:43;;;;;;;;;7.00;6.75;;;;;17.37;60.29;101092.56;146621;608;46014;-65
2023/06/07 03:13:02;;;;;;;;;9.75;8.00;;;;;17.34;59.08;101089.84;146622;621;46010;-66
2023/06/07 03:16:19;;;;;;;;;6.75;6.75;;;;;17.33;59.75;101093.31;146619;637;46014;-67
2023/06/07 03:19:19;;;;;;;;;8.25;8.00;;;;;17.28;61.05;101093.16;146624;618;47013;-66
2023/06/07 03:22:32;;;;;;;;;7.25;7.25;;;;;17.25;60.86;101093.06;146619;599;46012;-65
2023/06/07 03:25:56;;;;;;;;;7.50;6.25;;;;;17.26;59.71;101093.12;146622;570;46020;-66
2023/06/07 03:28:53;;;;;;;;;7.50;6.75;;;;;17.33;61.71;101085.44;146620;714;46017;-65
2023/06/07 03:32:13;;;;;;;;;;;;;;;;;;;;;
2023/06/07 03:35:14;;;;;;;;;9.75;7.75;;;;;17.45;61.34;101076.22;146617;684;46019;-65
2023/06/07 03:38:11;;;;;;;;;7.50;7.00;;;;;17.51;61.24;101081.63;146622;586;46020;-64
2023/06/07 03:41:25;;;;;;;;;8.75;7.75;;;;;17.59;59.91;101076.59;146618;624;46016;-64
2023/06/07 03:44:29;;;;;;;;;10.25;8.75;;;;;17.63;60.60;101077.56;146621;574;46010;-64
2023/06/07 03:47:31;;;;;;;;;11.00;9.75;;;;;17.65;61.57;101074.13;146616;569;46919;-63
2023/06/07 03:50:40;;;;;;;;;8.00;7.00;;;;;17.70;61.90;101083.03;146622;650;46020;-63
2023/06/07 03:53:50;;;;;;;;;;;;;;;;;;;;;
2023/06/07 03:56:46;;;;;;;;;8.00;8.00;;;;;17.78;61.12;101078.91;146619;594;46021;-63
2023/06/07 03:59:39;;;;;;;;;7.50;7.00;;;;;17.83;61.34;101079.03;146621;569;46012;-63
2023/06/07 04:02:49;;;;;;;;;6.25;6.25;;;;;17.88;61.68;101079.16;146624;685;47010;-63
2023/06/07 04:06:20;;;;;;;;;7.75;6.50;;;;;17.98;60.67;101078.59;146615;581;47016;-62
2023/06/07 04:09:23;;;;;;;;;10.00;9.25;;;;;18.18;61.58;101077.34;146625;569;46010;-64
2023/06/07 04:12:18;;;;;;;;;8.75;7.75;;;;;18.39;61.07;101073.50;146620;662;46016;-63
2023/06/07 04:15:23;;;;;;;;;7.75;7.75;;;;;18.63;59.83;101081.09;146624;710;46020;-63
2023/06/07 04:18:25;;;;;;;;;8.00;7.00;;;;;16.30;58.00;100632.12;146620;572;46015;-63
2023/06/07 04:21:19;;;;;;;;;6.67;5.33;;;;;18.99;59.13;101075.84;146623;569;46051;-64
2023/06/07 04:24:21;;;;;;;;;;;;;;;;;;;;;
2023/06/07 04:27:19;;;;;;;;;8.25;7.00;;;;;19.30;58.08;101077.37;146623;588;46052;-64
2023/06/07 04:30:36;;;;;;;;;14.75;14.50;;;;;19.41;56.99;101080.25;146611;628;47917;-65
2023/06/07 04:33:37;;;;;;;;;10.50;10.50;;;;;19.58;57.69;101084.09;146619;574;46021;-66
2023/06/07 04:36:37;;;;;;;;;9.25;8.75;;;;;19.78;57.75;101081.00;146618;651;46014;-65
2023/06/07 04:39:39;;;;;;;;;13.25;10.00;;;;;20.10;57.86;101086.00;146625;735;46012;-65
2023/06/07 04:43:09;;;;;;;;;7.33;7.00;;;;;20.40;56.51;101086.53;146619;658;46012;-65
2023/06/07 04:46:11;;;;;;;;;9.00;7.25;;;;;20.71;57.15;101085.31;146624;655;46012;-65
2023/06/07 04:49:15;;;;;;;;;6.00;6.00;;;;;21.01;56.38;101083.12;146620;583;46017;-64
2023/06/07 04:52:19;;;;;;;;;8.33;6.67;;;;;21.30;55.57;101080.87;146624;600;46020;-65
2023/06/07 04:55:34;;;;;;;;;8.00;7.00;;;;;20.25;54.33;100849.31;146619;588;46016;-64
2023/06/07 04:58:45;;;;;;;;;8.00;7.00;;;;;21.87;53.11;101074.56;146625;608;46010;-65
2023/06/07 05:01:44;;;;;;;;;7.75;7.75;;;;;22.03;53.29;101068.56;146619;571;46917;-65
2023/06/07 05:04:47;;;;;;;;;14.25;11.25;;;;;22.24;52.10;101072.28;146625;660;46010;-65
2023/06/07 05:08:05;;;;;;;;;;;;;;;;;;;;;
2023/06/07 05:11:14;;;;;;;;;;;;;;;;;;;;;
2023/06/07 05:14:22;;;;;;;;;17.00;15.50;;;;;22.64;50.83;101077.91;146618;606;45018;-64
2023/06/07 05:17:20;;;;;;;;;14.00;12.00;;;;;22.69;50.78;101066.50;146618;676;46010;-66
2023/06/07 05:20:27;;;;;;;;;10.50;10.00;;;;;22.76;49.28;101080.63;146609;700;47016;-65
2023/06/07 05:23:25;;;;;;;;;8.50;8.50;;;;;22.78;49.03;101078.91;146611;657;46020;-65
2023/06/07 05:26:48;;;;;;;;;;;;;;;;;;;;;
2023/06/07 05:30:07;;;;;;;;;10.33;9.33;;;;;22.97;49.72;101082.59;146624;573;46012;-64
2023/06/07 05:33:08;;;;;;;;;11.33;10.33;;;;;23.13;49.18;101080.91;146618;617;46919;-66
2023/06/07 05:36:10;;;;;;;;;10.00;8.00;;;;;23.24;47.52;101090.69;146620;611;46010;-67
2023/06/07 05:39:10;;;;;;;;;9.33;9.00;;;;;23.33;48.25;101089.81;146621;575;46014;-67
2023/06/07 05:42:25;;;;;;;;;10.00;8.00;;;;;23.41;46.74;101090.75;146623;616;46021;-69
2023/06/07 05:45:28;;;;;;;;;10.50;10.00;;;;;23.44;48.06;101084.59;146616;566;46016;-68
2023/06/07 05:48:26;;;;;;;;;7.33;6.00;;;;;23.51;48.98;101089.00;146620;578;46021;-69
2023/06/07 05:51:33;;;;;;;;;10.00;10.00;;;;;23.63;47.44;101085.53;146618;592;46016;-68
2023/06/07 05:54:54;;;;;;;;;7.67;7.00;;;;;23.83;49.21;101089.19;146621;577;46010;-68
2023/06/07 05:58:00;;;;;;;;;9.00;7.00;;;;;24.00;48.49;101081.25;146618;635;46016;-68
2023/06/07 06:01:01;;;;;;;;;11.33;9.00;;;;;24.12;47.57;101081.28;146624;598;47010;-68
2023/06/07 06:03:54;;;;;;;;;7.00;6.33;;;;;24.18;47.29;101073.34;146622;585;46013;-68
2023/06/07 06:06:49;;;;;;;;;11.50;10.00;;;;;24.25;46.80;101066.25;146622;582;45020;-68
2023/06/07 06:09:51;;;;;;;;;7.00;7.00;;;;;24.42;47.43;101076.88;146611;572;47917;-68
2023/06/07 06:12:46;;;;;;;;;9.50;8.00;;;;;24.60;47.65;101068.94;146622;631;47012;-68
2023/06/07 06:15:47;;;;;;;;;9.33;7.00;;;;;24.84;46.75;101073.31;146618;604;47917;-69
2023/06/07 06:18:44;;;;;;;;;10.00;8.33;;;;;25.02;45.76;101079.50;146621;617;46020;-68
2023/06/07 06:21:42;;;;;;;;;7.33;7.33;;;;;25.17;44.28;101079.47;146617;596;47012;-68
2023/06/07 06:25:01;;;;;;;;;9.67;8.67;;;;;23.21;45.13;100722.94;146620;575;46020;-68
2023/06/07 06:27:53;;;;;;;;;9.00;8.75;;;;;25.40;44.22;101081.16;146619;656;46016;-68
2023/06/07 06:30:48;;;;;;;;;11.00;8.67;;;;;25.52;42.51;101081.13;146621;570;46020;-69
2023/06/07 06:33:44;;;;;;;;;10.00;8.50;;;;;25.60;42.72;101078.41;146619;626;46035;-69
2023/06/07 06:36:40;;;;;;;;;9.00;8.00;;;;;25.61;41.55;101073.09;146624;608;46010;-68
2023/06/07 06:39:47;;;;;;;;;8.33;8.33;;;;;25.63;41.90;101076.63;146620;590;46016;-68
2023/06/07 06:42:50;;;;;;;;;9.50;8.75;;;;;25.67;42.41;101078.38;146621;565;47010;-68
2023/06/07 06:45:50;;;;;;;;;9.25;9.25;;;;;25.71;42.65;101079.25;146617;590;46030;-67
2023/06/07 06:48:47;;;;;;;;;10.25;9.00;;;;;25.82;42.44;101073.87;146622;622;47010;-68
2023/06/07 06:51:39;;;;;;;;;10.00;10.00;;;;;25.88;42.39;101073.84;146618;647;46016;-69
2023/06/07 06:54:47;;;;;;;;;54.25;44.25;;;;;25.94;42.56;101069.38;146616;618;46020;-68
2023/06/07 06:57:47;;;;;;;;;13.25;11.00;;;;;26.07;40.78;101072.84;146617;688;46012;-68
2023/06/07 07:00:48;;;;;;;;;28.00;24.75;;;;;26.13;41.54;101071.91;146620;588;46010;-68
2023/06/07 07:03:55;;;;;;;;;11.50;10.25;;;;;26.15;42.22;101073.69;146616;626;46012;-67
2023/06/07 07:07:10;;;;;;;;;;;;;;;;;;;;;
2023/06/07 07:10:11;;;;;;;;;16.75;14.50;;;;;25.97;43.04;101074.69;146610;567;47017;-67
2023/06/07 07:13:34;;;;;;;;;10.75;10.50;;;;;24.45;45.12;100810.97;146617;606;46010;-68
2023/06/07 07:16:28;;;;;;;;;15.75;14.50;;;;;26.06;42.62;101071.06;146616;617;46012;-68
2023/06/07 07:19:30;;;;;;;;;33.25;28.50;;;;;26.16;43.27;101074.56;146617;569;46020;-68
2023/06/07 07:22:24;;;;;;;;;8.67;7.67;;;;;26.24;40.81;101076.25;146615;698;46012;-68
2023/06/07 07:25:20;;;;;;;;;10.33;9.33;;;;;26.31;42.46;101077.09;146622;578;47010;-68
2023/06/07 07:28:03;;;;;;;;;11.50;10.25;;;;;26.37;43.59;101073.50;146705;567;46023;-68
2023/06/07 07:31:10;;;;;;;;;8.75;8.50;;;;;26.33;43.52;101075.31;146620;579;46037;-69
2023/06/07 07:34:22;;;;;;;;;11.50;10.25;;;;;26.16;42.95;101079.88;146621;708;46020;-68
2023/06/07 07:37:17;;;;;;;;;11.00;9.33;;;;;25.87;45.42;101072.97;146616;581;46916;-67
2023/06/07 07:40:19;;;;;;;;;9.00;8.00;;;;;25.84;46.04;101086.28;146623;698;47010;-68
2023/06/07 07:43:22;;;;;;;;;9.00;8.00;;;;;25.91;45.16;101076.50;146621;595;46014;-68
2023/06/07 07:46:15;;;;;;;;;9.25;8.25;;;;;26.00;44.55;101079.09;146616;589;46020;-68
2023/06/07 07:49:27;;;;;;;;;10.33;9.33;;;;;26.15;44.49;101078.13;146621;609;46013;-69
2023/06/07 07:52:35;;;;;;;;;9.00;7.67;;;;;26.20;43.93;101076.28;146626;564;46010;-68
2023/06/07 07:55:36;;;;;;;;;12.00;11.00;;;;;26.07;42.35;101069.31;146618;606;46016;-68
2023/06/07 07:58:45;;;;;;;;;;;;;;;;;;;;;
2023/06/07 08:01:45;;;;;;;;;11.50;9.75;;;;;25.82;44.04;101069.47;146619;610;46016;-65
2023/06/07 08:04:37;;;;;;;;;10.67;8.00;;;;;25.84;45.27;101064.16;146626;583;46021;-65
2023/06/07 08:07:45;;;;;;;;;7.67;7.00;;;;;25.90;44.83;101074.75;146619;609;46915;-65
2023/06/07 08:10:42;;;;;;;;;8.00;7.00;;;;;25.82;43.78;101058.81;146623;580;46014;-65
2023/06/07 08:13:43;;;;;;;;;9.75;9.50;;;;;25.61;44.13;101070.44;146615;591;46017;-64
2023/06/07 08:16:36;;;;;;;;;8.00;7.00;;;;;25.35;44.88;101060.81;146624;569;47010;-65
2023/06/07 08:19:22;;;;;;;;;9.33;7.00;;;;;25.27;45.98;101059.09;146708;578;46022;-65
2023/06/07 08:22:42;;;;;;;;;;;;;;;;;;;;;
2023/06/07 08:25:59;;;;;;;;;7.00;7.00;;;;;25.35;45.40;101063.47;146632;653;46008;-67
2023/06/07 08:29:01;;;;;;;;;;;;;;;;;;;;;
2023/06/07 08:32:05;;;;;;;;;9.00;8.00;;;;;25.53;45.46;101066.94;146632;649;46010;-65
2023/06/07 08:35:07;;;;;;;;;8.67;8.33;;;;;25.49;45.61;101057.22;146626;573;46012;-66
2023/06/07 08:38:02;;;;;;;;;6.33;6.33;;;;;25.39;45.58;101052.84;146630;579;46010;-67
2023/06/07 08:41:14;;;;;;;;;10.67;10.33;;;;;25.45;46.59;101059.03;146626;569;46016;-65
2023/06/07 08:44:13;;;;;;;;;8.33;7.33;;;;;25.66;44.72;101065.09;146621;681;47020;-66
2023/06/07 08:47:21;;;;;;;;;7.00;7.00;;;;;25.69;43.89;101049.16;146625;608;46033;-66
2023/06/07 08:50:43;;;;;;;;;7.67;7.67;;;;;25.74;43.12;101050.00;146631;606;46020;-67
2023/06/07 08:53:58;;;;;;;;;9.67;8.33;;;;;25.83;45.24;101050.00;146625;577;46017;-67
2023/06/07 08:57:17;;;;;;;;;8.00;6.33;;;;;25.98;43.20;101048.97;146628;588;46010;-67
2023/06/07 09:00:39;;;;;;;;;8.33;8.00;;;;;26.14;41.70;101044.47;146619;577;47012;-66
2023/06/07 09:03:50;;;;;;;;;8.75;8.00;;;;;26.31;40.61;101045.19;146622;617;47010;-65
2023/06/07 09:07:07;;;;;;;;;9.00;7.00;;;;;26.39;41.79;101040.69;146623;697;46017;-64
2023/06/07 09:10:13;;;;;;;;;9.00;7.33;;;;;26.49;41.41;101036.22;146629;648;47010;-65
2023/06/07 09:13:13;;;;;;;;;8.50;8.25;;;;;26.63;40.89;101039.59;146622;574;46024;-65
2023/06/07 09:16:14;;;;;;;;;7.00;6.75;;;;;26.53;40.88;101032.63;146628;563;46020;-67
2023/06/07 09:19:10;;;;;;;;;8.75;8.00;;;;;26.40;41.43;101037.13;146617;600;46915;-66
2023/06/07 09:22:35;;;;;;;;;5.67;5.67;;;;;26.30;42.20;101026.59;146620;616;47026;-66
2023/06/07 09:25:35;;;;;;;;;10.00;8.33;;;;;26.37;42.07;101031.84;146619;564;46016;-66
2023/06/07 09:28:45;;;;;;;;;8.33;6.67;;;;;26.62;43.12;101021.88;146620;631;46021;-66
2023/06/07 09:31:51;;;;;;;;;8.75;6.75;;;;;26.85;42.83;101018.09;146618;588;46031;-66
2023/06/07 09:35:14;;;;;;;;;11.67;6.00;;;;;27.05;41.08;101026.75;146624;577;46010;-68
2023/06/07 09:38:34;;;;;;;;;5.67;4.33;;;;;27.20;40.93;101017.72;146613;672;47016;-64
2023/06/07 09:41:38;;;;;;;;;7.33;7.33;;;;;27.21;41.04;101024.81;146623;693;46020;-66
2023/06/07 09:44:35;;;;;;;;;7.33;6.33;;;;;27.15;40.17;101023.09;146617;614;47915;-66
2023/06/07 09:47:41;;;;;;;;;6.33;5.33;;;;;27.07;39.82;101018.72;146621;588;46020;-64
2023/06/07 09:50:52;;;;;;;;;5.67;5.67;;;;;26.98;40.08;101014.41;146614;588;46016;-65
2023/06/07 09:54:17;;;;;;;;;6.67;5.00;;;;;25.78;42.52;100810.91;146620;605;47010;-65
2023/06/07 09:57:32;;;;;;;;;5.33;5.33;;;;;26.91;43.48;101004.72;146618;563;46016;-64
2023/06/07 10:00:29;;;;;;;;;6.33;6.33;;;;;26.93;43.75;100998.47;146621;585;46021;-65
2023/06/07 10:03:26;;;;;;;;;7.00;5.67;;;;;26.90;43.41;100989.66;146616;591;47016;-66
2023/06/07 10:06:24;;;;;;;;;5.75;5.75;;;;;26.99;42.58;101005.53;146623;575;46010;-67
2023/06/07 10:10:00;;;;;;;;;7.00;7.00;;;;;25.76;43.83;100770.22;146618;569;46042;-65
2023/06/07 10:12:55;;;;;;;;;7.00;6.67;;;;;27.21;42.76;101000.84;146623;637;46021;-66
2023/06/07 10:16:04;;;;;;;;;4.00;4.00;;;;;27.27;43.69;101005.22;146619;598;46012;-66
2023/06/07 10:19:12;;;;;;;;;9.25;7.00;;;;;27.24;42.86;101008.78;146621;571;46020;-67
2023/06/07 10:22:26;;;;;;;;;7.00;7.00;;;;;27.20;43.24;100996.44;146616;656;46017;-67
2023/06/07 10:25:55;;;;;;;;;6.00;5.33;;;;;27.27;43.05;100992.78;146623;569;47010;-69
2023/06/07 10:29:24;;;;;;;;;6.67;6.33;;;;;27.37;44.38;100990.88;146619;595;46017;-66
2023/06/07 10:32:45;;;;;;;;;7.25;7.00;;;;;27.34;44.45;100981.12;146618;689;47012;-66
2023/06/07 10:35:46;;;;;;;;;6.67;6.00;;;;;27.29;44.29;100987.41;146618;569;46026;-66
2023/06/07 10:39:01;;;;;;;;;6.50;5.25;;;;;27.26;44.58;100988.38;146617;657;46020;-68
2023/06/07 10:42:05;;;;;;;;;4.67;4.33;;;;;27.25;44.42;100996.34;146620;594;47012;-66
2023/06/07 10:45:00;;;;;;;;;5.33;5.33;;;;;27.20;44.98;100996.44;146621;593;46021;-66
2023/06/07 10:47:58;;;;;;;;;8.50;5.75;;;;;27.15;45.08;100988.50;146618;593;46012;-65
2023/06/07 10:51:11;;;;;;;;;9.67;8.33;;;;;27.12;45.88;100983.16;146622;709;47012;-66
2023/06/07 10:54:23;;;;;;;;;;;;;;;;;;;;;
2023/06/07 10:57:48;;;;;;;;;8.00;8.00;;;;;27.11;46.35;100980.53;146619;627;48010;-66
2023/06/07 11:00:45;;;;;;;;;6.67;6.67;;;;;27.09;47.09;100975.22;146620;601;46016;-66
2023/06/07 11:03:49;;;;;;;;;10.67;7.67;;;;;27.08;47.75;100969.94;146622;569;46020;-69
2023/06/07 11:07:28;;;;;;;;;7.67;7.67;;;;;25.87;46.93;100758.63;146617;619;46915;-67
2023/06/07 11:10:42;;;;;;;;;6.00;5.33;;;;;27.14;47.05;100972.56;146619;583;47012;-67
2023/06/07 11:14:25;;;;;;;;;10.00;9.00;;;;;25.99;47.57;100747.88;146619;569;46017;-67
2023/06/07 11:18:14;;;;;;;;;6.67;6.67;;;;;26.11;47.52;100753.03;146624;640;46010;-67
2023/06/07 11:21:07;;;;;;;;;8.00;7.67;;;;;27.31;49.11;100953.69;146620;570;46017;-68
2023/06/07 11:24:24;;;;;;;;;7.00;7.00;;;;;27.28;48.10;100956.38;146619;627;46020;-66
2023/06/07 11:27:24;;;;;;;;;7.67;6.33;;;;;27.30;47.24;100949.25;146616;679;46017;-66
2023/06/07 11:30:05;;;;;;;;;10.75;9.50;;;;;27.24;49.09;100954.66;146697;569;46023;-69
2023/06/07 11:33:06;;;;;;;;;9.50;8.50;;;;;27.14;49.18;100952.13;146621;642;46012;-67
2023/06/07 11:36:04;;;;;;;;;11.67;7.33;;;;;27.05;51.79;100949.56;146625;573;46020;-67
2023/06/07 11:39:03;;;;;;;;;8.00;6.00;;;;;26.98;50.84;100954.97;146617;593;47918;-67
2023/06/07 11:42:01;;;;;;;;;7.00;6.00;;;;;26.95;51.58;100950.59;146620;596;46020;-66
2023/06/07 11:45:01;;;;;;;;;7.33;6.33;;;;;26.95;50.44;100955.91;146617;587;46016;-67
2023/06/07 11:48:23;;;;;;;;;7.25;5.50;;;;;24.80;48.97;100596.87;146622;596;46020;-66
2023/06/07 11:51:18;;;;;;;;;4.33;3.67;;;;;26.79;50.54;100949.00;146619;601;46916;-66
2023/06/07 11:54:16;;;;;;;;;8.00;7.00;;;;;26.80;50.91;100942.78;146621;581;47010;-66
2023/06/07 11:57:32;;;;;;;;;5.50;3.75;;;;;26.80;50.33;100937.47;146619;632;46012;-66
2023/06/07 12:00:31;;;;;;;;;7.33;7.00;;;;;26.82;51.80;100943.62;146620;610;47010;-67
2023/06/07 12:03:22;;;;;;;;;9.00;5.75;;;;;26.80;52.05;100942.78;146698;564;47023;-67
2023/06/07 12:06:20;;;;;;;;;9.00;6.67;;;;;26.80;48.70;100934.81;146620;584;47012;-67
2023/06/07 12:09:18;;;;;;;;;7.67;7.00;;;;;26.78;51.77;100937.47;146618;589;46020;-68
2023/06/07 12:12:20;;;;;;;;;7.33;7.00;;;;;26.78;51.47;100926.84;146614;569;46016;-67
2023/06/07 12:15:14;;;;;;;;;6.00;5.00;;;;;26.78;52.67;100933.94;146622;580;46020;-67
2023/06/07 12:18:07;;;;;;;;;9.00;7.00;;;;;26.81;52.27;100925.91;146616;689;46017;-67
2023/06/07 12:21:13;;;;;;;;;8.00;7.00;;;;;26.89;49.51;100922.28;146621;572;47010;-67
2023/06/07 12:24:07;;;;;;;;;6.33;5.67;;;;;26.96;49.67;100909.75;146616;584;46017;-67
2023/06/07 12:27:00;;;;;;;;;7.00;7.00;;;;;27.08;48.60;100911.37;146621;635;47010;-68
2023/06/07 12:30:00;;;;;;;;;8.00;7.00;;;;;27.18;47.13;100907.72;146620;564;46012;-66
2023/06/07 12:33:02;;;;;;;;;9.00;7.33;;;;;27.19;47.33;100909.47;146622;680;46020;-67
2023/06/07 12:35:57;;;;;;;;;7.33;7.00;;;;;27.20;47.74;100907.69;146616;565;47016;-66
2023/06/07 12:38:58;;;;;;;;;6.00;5.00;;;;;27.20;46.44;100905.00;146624;618;46020;-66
2023/06/07 12:41:51;;;;;;;;;6.00;5.33;;;;;27.18;46.35;100903.25;146619;579;47014;-66
2023/06/07 12:44:48;;;;;;;;;8.33;7.33;;;;;27.20;46.30;100899.69;146620;609;46030;-67
2023/06/07 12:47:41;;;;;;;;;7.00;6.25;;;;;27.20;49.42;100900.59;146615;724;46013;-68
2023/06/07 12:50:52;;;;;;;;;6.67;6.67;;;;;27.13;49.42;100891.78;146623;595;46020;-67
2023/06/07 12:53:54;;;;;;;;;6.67;6.00;;;;;27.10;49.70;100897.16;146616;614;46017;-66
2023/06/07 12:57:35;;;;;;;;;8.00;7.00;;;;;25.87;49.78;100686.91;146621;622;47010;-67
2023/06/07 13:00:40;;;;;;;;;9.33;9.00;;;;;27.10;50.42;100888.25;146618;648;46016;-67
2023/06/07 13:03:33;;;;;;;;;7.00;6.33;;;;;27.07;51.09;100890.97;146622;583;46012;-67
2023/06/07 13:06:46;;;;;;;;;;;;;;;;;;;;;
2023/06/07 13:09:50;;;;;;;;;7.00;5.00;;;;;27.10;50.72;100873.19;146621;601;46022;-67
2023/06/07 13:13:06;;;;;;;;;8.33;7.67;;;;;27.20;50.03;100865.09;146616;585;47016;-65
2023/06/07 13:16:01;;;;;;;;;6.00;5.00;;;;;27.20;50.05;100860.66;146620;616;46031;-67
2023/06/07 13:19:08;;;;;;;;;8.00;8.00;;;;;27.18;50.49;100871.31;146616;573;46014;-67
2023/06/07 13:22:14;;;;;;;;;6.67;6.67;;;;;27.15;49.95;100862.50;146619;636;48020;-66
2023/06/07 13:25:27;;;;;;;;;7.33;6.00;;;;;27.08;49.04;100867.00;146617;585;47040;-68
2023/06/07 13:28:23;;;;;;;;;8.33;6.00;;;;;27.06;49.82;100860.81;146615;563;47020;-67
2023/06/07 13:31:25;;;;;;;;;6.67;5.33;;;;;26.93;52.34;100853.91;146614;594;47017;-66
2023/06/07 13:34:23;;;;;;;;;7.67;7.00;;;;;26.75;51.92;100868.34;146615;590;48010;-66
2023/06/07 13:37:29;;;;;;;;;7.67;7.00;;;;;26.68;53.43;100870.22;146616;579;46016;-67
2023/06/07 13:40:27;;;;;;;;;7.00;6.00;;;;;26.60;53.00;100852.59;146625;569;46021;-67
2023/06/07 13:43:36;;;;;;;;;5.33;5.00;;;;;26.58;51.40;100855.28;146617;607;46016;-66
2023/06/07 13:46:38;;;;;;;;;7.00;7.00;;;;;26.58;52.91;100849.97;146618;597;47015;-67
2023/06/07 13:49:30;;;;;;;;;7.00;7.00;;;;;26.55;53.43;100859.75;146618;565;46016;-66
2023/06/07 13:52:38;;;;;;;;;5.67;5.67;;;;;26.51;53.74;100866.00;146624;569;46010;-68
2023/06/07 13:55:39;;;;;;;;;7.00;7.00;;;;;26.44;52.73;100860.72;146619;638;46012;-67
2023/06/07 13:58:42;;;;;;;;;7.67;6.00;;;;;26.43;54.16;100868.72;146623;576;46020;-66
2023/06/07 14:01:39;;;;;;;;;8.00;7.33;;;;;26.44;53.16;100865.16;146617;575;46017;-67
2023/06/07 14:04:36;;;;;;;;;6.67;6.67;;;;;26.34;52.94;100852.88;146621;613;46036;-65
2023/06/07 14:07:32;;;;;;;;;4.00;4.00;;;;;26.25;53.45;100854.72;146618;598;47012;-66
2023/06/07 14:10:50;;;;;;;;;8.00;7.00;;;;;26.20;52.61;100867.22;146625;606;46010;-67
2023/06/07 14:13:45;;;;;;;;;7.00;7.00;;;;;26.15;53.65;100849.56;146618;610;46014;-67
2023/06/07 14:16:39;;;;;;;;;7.33;6.33;;;;;26.13;53.68;100851.34;146623;578;46020;-66
2023/06/07 14:19:46;;;;;;;;;5.33;5.00;;;;;24.01;53.02;100484.41;146614;570;48012;-67
2023/06/07 14:22:44;;;;;;;;;7.00;7.00;;;;;26.23;53.28;100853.87;146624;639;46010;-67
2023/06/07 14:25:39;;;;;;;;;7.00;5.67;;;;;26.24;52.76;100844.13;146617;565;47016;-67
2023/06/07 14:28:31;;;;;;;;;2.50;2.00;;;;;26.30;52.83;100849.38;146624;591;46010;-66
2023/06/07 14:31:43;;;;;;;;;5.67;5.67;;;;;24.98;53.90;100622.31;146619;597;47016;-66
2023/06/07 14:34:35;;;;;;;;;7.00;6.00;;;;;26.27;53.14;100847.63;146624;633;47010;-66
2023/06/07 14:37:31;;;;;;;;;6.33;5.67;;;;;26.30;52.91;100862.66;146618;568;47012;-67
2023/06/07 14:40:37;;;;;;;;;7.00;6.00;;;;;26.23;50.79;100853.87;146625;611;46010;-67
2023/06/07 14:43:59;;;;;;;;;6.00;6.00;;;;;26.23;52.08;100852.97;146621;592;46034;-68